Time;durP1;ratioP1;P1;durP2;ratioP2;P2;SDS_P1;SDS_P2;PMS_P1;PMS_P2;Temp;Humidity;BMP_temperature;BMP_pressure;BME280_temperature;BME280_humidity;BME280_pressure;Samples;Min_cycle;Max_cycle;Signal;HPM_P1;HPM_P2
2023/07/04 00:00:44;;;;;;;3.17;1.98;;;17.20;80.90;;;;;;5028948;28;20030;-78
2023/07/04 00:03:09;;;;;;;2.45;1.50;;;17.30;80.70;;;;;;5028657;28;20527;-77
2023/07/04 00:05:35;;;;;;;3.00;1.65;;;17.30;80.60;;;;;;5028634;28;20531;-77
2023/07/04 00:08:01;;;;;;;4.13;1.42;;;17.30;80.40;;;;;;5028297;28;20404;-78
2023/07/04 00:10:26;;;;;;;2.72;1.52;;;17.20;80.40;;;;;;5028366;28;20060;-78
2023/07/04 00:12:52;;;;;;;1.98;1.52;;;17.10;80.60;;;;;;5028629;28;20021;-77
2023/07/04 00:15:17;;;;;;;2.67;1.70;;;17.20;80.60;;;;;;5028497;28;20032;-78
2023/07/04 00:17:43;;;;;;;2.05;1.67;;;17.10;80.60;;;;;;5028335;28;20358;-77
2023/07/04 00:20:10;;;;;;;2.50;1.83;;;17.00;81.20;;;;;;5028530;28;20041;-77
2023/07/04 00:22:40;;;;;;;2.40;1.80;;;16.90;81.30;;;;;;5028349;28;20040;-77
2023/07/04 00:25:06;;;;;;;2.83;1.48;;;16.90;81.40;;;;;;5028336;28;20022;-77
2023/07/04 00:27:32;;;;;;;2.42;1.67;;;16.90;81.60;;;;;;5028500;28;20099;-78
2023/07/04 00:29:58;;;;;;;3.63;1.73;;;16.80;82.10;;;;;;5028526;28;20030;-79
2023/07/04 00:32:24;;;;;;;2.65;1.73;;;16.80;82.00;;;;;;5027985;28;20025;-76
2023/07/04 00:34:50;;;;;;;4.55;1.77;;;16.80;82.30;;;;;;5028484;28;20025;-78
2023/07/04 00:37:23;;;;;;;2.47;1.45;;;16.70;82.60;;;;;;5028262;28;20466;-78
2023/07/04 00:39:49;;;;;;;1.30;1.20;;;16.80;81.90;;;;;;5028089;28;20029;-77
2023/07/04 00:42:15;;;;;;;1.95;1.38;;;16.70;82.20;;;;;;5028192;28;20052;-78
2023/07/04 00:44:47;;;;;;;2.58;1.88;;;16.60;82.20;;;;;;5029380;28;20028;-78
2023/07/04 00:47:21;;;;;;;2.42;1.60;;;16.50;82.20;;;;;;5028264;28;20481;-77
2023/07/04 00:49:49;;;;;;;1.65;1.50;;;16.50;82.70;;;;;;5028220;28;20041;-78
2023/07/04 00:52:23;;;;;;;2.42;1.58;;;16.50;83.00;;;;;;5027824;28;20077;-77
2023/07/04 00:55:01;;;;;;;2.08;1.50;;;16.50;82.80;;;;;;5028145;28;20108;-78
2023/07/04 00:57:32;;;;;;;2.38;1.48;;;16.50;82.60;;;;;;5028341;28;20362;-77
2023/07/04 01:00:08;;;;;;;3.10;1.58;;;16.60;82.50;;;;;;5028342;28;20030;-78
2023/07/04 01:02:34;;;;;;;3.47;2.00;;;16.60;82.40;;;;;;5028116;28;20362;-78
2023/07/04 01:05:04;;;;;;;1.67;1.33;;;16.60;82.80;;;;;;5028042;28;20022;-78
2023/07/04 01:07:48;;;;;;;2.47;1.40;;;16.50;82.30;;;;;;5031102;28;20021;-77
2023/07/04 01:10:37;;;;;;;2.53;1.55;;;16.50;82.20;;;;;;5031311;28;20024;-77
2023/07/04 01:13:03;;;;;;;2.83;1.50;;;16.50;82.30;;;;;;5033586;28;20026;-77
2023/07/04 01:15:30;;;;;;;2.00;1.52;;;16.40;82.70;;;;;;5032672;28;20017;-78
2023/07/04 01:17:57;;;;;;;1.92;1.15;;;16.40;82.80;;;;;;5015293;28;20033;-79
2023/07/04 01:20:23;;;;;;;2.22;1.45;;;16.40;83.30;;;;;;5031220;28;20539;-77
2023/07/04 01:23:01;;;;;;;1.60;1.25;;;16.40;82.90;;;;;;5030811;28;20378;-78
2023/07/04 01:25:41;;;;;;;1.75;1.30;;;16.30;83.20;;;;;;5030900;28;20457;-79
2023/07/04 01:28:07;;;;;;;1.42;1.15;;;16.30;83.20;;;;;;5031161;28;20481;-78
2023/07/04 01:30:38;;;;;;;2.78;1.52;;;16.30;82.70;;;;;;5031156;28;20424;-78
2023/07/04 01:33:05;;;;;;;3.78;1.70;;;16.30;83.30;;;;;;5031005;28;20116;-78
2023/07/04 01:35:33;;;;;;;2.78;1.50;;;16.20;83.80;;;;;;5030880;28;20026;-79
2023/07/04 01:37:59;;;;;;;4.95;1.63;;;16.20;84.00;;;;;;5030801;28;20116;-78
2023/07/04 01:40:25;;;;;;;2.60;1.42;;;16.20;83.80;;;;;;5031845;28;20544;-78
2023/07/04 01:42:52;;;;;;;2.72;1.80;;;16.30;83.80;;;;;;5030706;28;20144;-79
2023/07/04 01:45:18;;;;;;;2.95;1.65;;;16.30;83.50;;;;;;5030865;28;20108;-78
2023/07/04 01:47:44;;;;;;;2.88;1.42;;;16.30;83.50;;;;;;5030773;28;20025;-78
2023/07/04 01:50:11;;;;;;;1.80;1.55;;;16.30;83.30;;;;;;5031889;28;20017;-79
2023/07/04 01:52:38;;;;;;;2.25;1.60;;;16.20;83.00;;;;;;5030431;28;20044;-79
2023/07/04 01:55:04;;;;;;;2.05;1.58;;;16.20;82.90;;;;;;5030666;28;20078;-79
2023/07/04 01:57:29;;;;;;;1.80;1.52;;;16.20;82.80;;;;;;5030105;28;20032;-78
2023/07/04 01:59:55;;;;;;;1.45;1.23;;;16.30;83.10;;;;;;5030480;28;20025;-78
2023/07/04 02:02:21;;;;;;;1.48;1.38;;;16.30;83.00;;;;;;5030606;28;20396;-77
2023/07/04 02:04:46;;;;;;;1.63;1.38;;;16.20;82.60;;;;;;5030601;28;20071;-77
2023/07/04 02:07:14;;;;;;;2.22;1.70;;;16.30;82.70;;;;;;5030339;28;20116;-77
2023/07/04 02:09:42;;;;;;;1.67;1.40;;;16.30;82.80;;;;;;5030432;28;20029;-78
2023/07/04 02:12:09;;;;;;;2.38;1.75;;;16.30;82.70;;;;;;5030549;28;20025;-77
2023/07/04 02:14:34;;;;;;;2.47;1.85;;;16.30;82.80;;;;;;5030720;28;20022;-76
2023/07/04 02:17:00;;;;;;;2.03;1.75;;;16.40;82.80;;;;;;5030289;28;20032;-78
2023/07/04 02:19:26;;;;;;;4.00;1.80;;;16.40;82.90;;;;;;5030189;28;20065;-78
2023/07/04 02:21:51;;;;;;;3.20;1.45;;;16.50;82.80;;;;;;5029896;28;20025;-76
2023/07/04 02:24:17;;;;;;;5.10;2.13;;;16.50;82.90;;;;;;5030051;28;20397;-78
2023/07/04 02:26:49;;;;;;;2.00;1.73;;;16.40;83.40;;;;;;5030362;28;20075;-76
2023/07/04 02:29:15;;;;;;;4.57;2.33;;;16.30;83.60;;;;;;5030078;28;20021;-77
2023/07/04 02:31:40;;;;;;;3.58;1.85;;;16.40;83.80;;;;;;5029940;28;20462;-78
2023/07/04 02:34:06;;;;;;;2.25;1.88;;;16.40;83.70;;;;;;5030082;28;20025;-77
2023/07/04 02:36:31;;;;;;;4.50;2.33;;;16.40;83.60;;;;;;5030006;28;20034;-77
2023/07/04 02:38:57;;;;;;;2.50;2.10;;;16.50;83.50;;;;;;5029834;28;20025;-77
2023/07/04 02:41:22;;;;;;;3.78;2.10;;;16.50;83.20;;;;;;5029871;28;20045;-78
2023/07/04 02:43:48;;;;;;;2.65;1.80;;;16.60;83.30;;;;;;5029617;28;20030;-77
2023/07/04 02:46:13;;;;;;;3.05;2.17;;;16.60;83.30;;;;;;5029657;28;20033;-77
2023/07/04 02:48:40;;;;;;;2.88;2.08;;;16.50;82.90;;;;;;5029919;28;20029;-77
2023/07/04 02:51:06;;;;;;;2.10;1.60;;;16.50;83.70;;;;;;5029730;28;20586;-77
2023/07/04 02:53:31;;;;;;;1.92;1.70;;;16.60;83.00;;;;;;5029863;28;20036;-77
2023/07/04 02:55:58;;;;;;;2.05;1.85;;;16.50;82.80;;;;;;5029570;28;20033;-77
2023/07/04 02:58:24;;;;;;;2.30;1.60;;;16.50;83.40;;;;;;5029486;28;20030;-78
2023/07/04 03:00:50;;;;;;;2.90;1.55;;;16.50;82.80;;;;;;5029311;28;20108;-77
2023/07/04 03:03:16;;;;;;;3.97;2.05;;;16.50;82.80;;;;;;5029442;28;20030;-77
2023/07/04 03:05:44;;;;;;;3.63;2.10;;;16.50;83.20;;;;;;5029630;28;20025;-77
2023/07/04 03:08:10;;;;;;;1.83;1.60;;;16.40;83.20;;;;;;5029516;28;20030;-78
2023/07/04 03:10:35;;;;;;;3.42;1.90;;;16.40;83.50;;;;;;5029491;28;20032;-77
2023/07/04 03:13:01;;;;;;;1.67;1.58;;;16.30;83.50;;;;;;5029205;28;20477;-78
2023/07/04 03:15:27;;;;;;;2.17;1.98;;;16.40;83.50;;;;;;5029367;28;20025;-78
2023/07/04 03:17:53;;;;;;;2.55;2.00;;;16.40;83.30;;;;;;5029260;28;20033;-78
2023/07/04 03:20:18;;;;;;;2.08;1.75;;;16.40;83.30;;;;;;5029295;28;20029;-78
2023/07/04 03:22:45;;;;;;;2.90;2.00;;;16.40;83.40;;;;;;5028773;28;20505;-78
2023/07/04 03:25:11;;;;;;;2.15;1.88;;;16.40;83.70;;;;;;5029093;28;20542;-78
2023/07/04 03:27:39;;;;;;;4.03;1.90;;;16.30;83.70;;;;;;5028925;28;20041;-78
2023/07/04 03:30:07;;;;;;;2.25;1.80;;;16.30;84.10;;;;;;5029570;28;20462;-78
2023/07/04 03:32:33;;;;;;;4.72;1.98;;;16.30;84.30;;;;;;5028748;28;20556;-79
2023/07/04 03:35:02;;;;;;;2.40;2.03;;;16.40;84.10;;;;;;5029064;28;20025;-79
2023/07/04 03:37:29;;;;;;;2.67;2.00;;;16.30;84.00;;;;;;5028942;28;20097;-77
2023/07/04 03:39:56;;;;;;;2.58;2.08;;;16.30;84.00;;;;;;5029070;28;20525;-78
2023/07/04 03:42:24;;;;;;;2.47;2.13;;;16.30;84.10;;;;;;5030246;28;20068;-78
2023/07/04 03:44:50;;;;;;;2.58;2.00;;;16.20;84.10;;;;;;5028786;28;20049;-79
2023/07/04 03:47:16;;;;;;;2.78;1.90;;;16.30;84.10;;;;;;5028322;28;20434;-77
2023/07/04 03:49:41;;;;;;;2.60;2.20;;;16.30;84.20;;;;;;5028359;28;20066;-78
2023/07/04 03:52:07;;;;;;;3.30;1.90;;;16.30;84.00;;;;;;5028943;28;20105;-78
2023/07/04 03:54:33;;;;;;;2.33;1.67;;;16.30;84.00;;;;;;5028833;28;20032;-77
2023/07/04 03:56:59;;;;;;;4.05;2.00;;;16.30;83.90;;;;;;5028664;28;20022;-78
2023/07/04 03:59:25;;;;;;;3.35;2.22;;;16.30;83.60;;;;;;5028537;28;20034;-78
2023/07/04 04:01:50;;;;;;;2.70;2.13;;;16.40;83.60;;;;;;5028451;28;20037;-78
2023/07/04 04:04:16;;;;;;;3.53;2.25;;;16.40;83.40;;;;;;5028921;28;20029;-78
2023/07/04 04:06:42;;;;;;;2.30;2.10;;;16.40;83.40;;;;;;5028886;28;20030;-78
2023/07/04 04:09:08;;;;;;;2.15;1.60;;;16.40;83.50;;;;;;5028724;28;20030;-78
2023/07/04 04:11:34;;;;;;;3.33;2.10;;;16.40;83.60;;;;;;5028536;28;20049;-78
2023/07/04 04:13:59;;;;;;;3.33;1.70;;;16.40;83.60;;;;;;5028716;28;20473;-79
2023/07/04 04:16:25;;;;;;;2.58;2.00;;;16.40;83.50;;;;;;5028871;28;20018;-79
2023/07/04 04:18:52;;;;;;;3.17;2.35;;;16.40;83.60;;;;;;5028454;28;20481;-78
2023/07/04 04:21:18;;;;;;;4.80;2.08;;;16.40;83.40;;;;;;5028807;28;20079;-77
2023/07/04 04:23:44;;;;;;;3.53;2.15;;;16.50;83.80;;;;;;5028621;28;20582;-78
2023/07/04 04:26:12;;;;;;;4.35;2.35;;;16.40;83.60;;;;;;5028360;28;20022;-78
2023/07/04 04:28:38;;;;;;;3.97;2.45;;;16.30;83.70;;;;;;5028374;28;20029;-74
2023/07/04 04:31:03;;;;;;;2.92;2.47;;;16.40;83.70;;;;;;5028274;28;20034;-75
2023/07/04 04:33:29;;;;;;;2.90;2.17;;;16.50;83.50;;;;;;5028226;28;20026;-77
2023/07/04 04:35:54;;;;;;;3.28;1.95;;;16.50;83.40;;;;;;5028349;28;20073;-76
2023/07/04 04:38:20;;;;;;;2.60;2.28;;;16.50;83.50;;;;;;5028125;28;20051;-76
2023/07/04 04:40:45;;;;;;;2.03;1.83;;;16.60;83.20;;;;;;5028670;28;20033;-76
2023/07/04 04:43:11;;;;;;;3.25;1.85;;;16.60;82.80;;;;;;5031820;28;20033;-76
2023/07/04 04:45:38;;;;;;;3.28;2.28;;;16.70;82.90;;;;;;5031703;28;20428;-75
2023/07/04 04:48:06;;;;;;;4.03;2.03;;;16.70;82.50;;;;;;5031490;28;20026;-76
2023/07/04 04:50:32;;;;;;;3.90;2.30;;;16.80;82.20;;;;;;5032632;28;20355;-76
2023/07/04 04:52:59;;;;;;;4.80;2.35;;;16.80;81.90;;;;;;5031264;28;20067;-76
2023/07/04 04:55:25;;;;;;;2.30;1.80;;;16.80;81.90;;;;;;5031253;28;20164;-76
2023/07/04 04:57:52;;;;;;;3.53;2.20;;;16.90;81.80;;;;;;5037030;28;20033;-76
2023/07/04 05:00:18;;;;;;;4.40;2.40;;;17.00;82.00;;;;;;5032520;28;20075;-76
2023/07/04 05:02:44;;;;;;;3.13;1.80;;;17.00;81.70;;;;;;5032279;28;20129;-75
2023/07/04 05:05:11;;;;;;;5.15;2.13;;;17.10;81.70;;;;;;5031691;28;20033;-76
2023/07/04 05:07:37;;;;;;;3.33;2.25;;;17.10;81.40;;;;;;5031468;28;20025;-76
2023/07/04 05:10:04;;;;;;;3.55;2.00;;;17.30;80.70;;;;;;5030868;28;20064;-76
2023/07/04 05:12:29;;;;;;;3.70;2.10;;;17.30;80.60;;;;;;5032541;28;20030;-76
2023/07/04 05:14:55;;;;;;;2.65;2.00;;;17.40;80.30;;;;;;5031400;28;20025;-76
2023/07/04 05:17:21;;;;;;;4.35;2.13;;;17.40;80.10;;;;;;5031161;28;20110;-74
2023/07/04 05:19:48;;;;;;;2.92;1.98;;;17.50;80.00;;;;;;5031305;28;20397;-76
2023/07/04 05:22:14;;;;;;;3.47;1.98;;;17.50;79.80;;;;;;5031172;28;20030;-75
2023/07/04 05:24:40;;;;;;;2.75;1.77;;;17.50;79.90;;;;;;5032571;28;20112;-75
2023/07/04 05:27:07;;;;;;;2.30;2.00;;;17.60;80.00;;;;;;5031094;28;20079;-75
2023/07/04 05:29:33;;;;;;;3.70;2.05;;;17.70;79.90;;;;;;5030370;28;20042;-76
2023/07/04 05:31:59;;;;;;;2.58;2.25;;;17.70;79.80;;;;;;5030582;28;20044;-76
2023/07/04 05:34:25;;;;;;;2.10;1.90;;;17.80;79.70;;;;;;5031053;28;20049;-77
2023/07/04 05:36:51;;;;;;;2.63;1.88;;;17.90;79.40;;;;;;5030958;28;20053;-76
2023/07/04 05:39:17;;;;;;;3.40;1.90;;;18.00;79.00;;;;;;5031139;28;20535;-77
2023/07/04 05:41:42;;;;;;;3.92;1.67;;;18.10;78.60;;;;;;5035061;28;20038;-78
2023/07/04 05:44:09;;;;;;;2.47;1.98;;;18.20;78.20;;;;;;5031010;28;20037;-76
2023/07/04 05:46:36;;;;;;;3.13;1.90;;;18.30;77.90;;;;;;5030731;28;20030;-76
2023/07/04 05:49:03;;;;;;;3.30;2.00;;;18.30;77.40;;;;;;5030759;28;20025;-78
2023/07/04 05:51:29;;;;;;;4.03;2.10;;;18.40;77.30;;;;;;5030405;28;20133;-78
2023/07/04 05:53:55;;;;;;;2.67;1.83;;;18.40;77.30;;;;;;5030617;28;20026;-78
2023/07/04 05:56:30;;;;;;;3.55;1.90;;;18.40;76.90;;;;;;5030536;28;20078;-78
2023/07/04 05:58:58;;;;;;;2.63;1.67;;;18.50;76.70;;;;;;5030453;28;20477;-78
2023/07/04 06:01:25;;;;;;;3.25;1.75;;;18.60;76.50;;;;;;5030536;28;20029;-78
2023/07/04 06:03:52;;;;;;;2.60;1.65;;;18.60;75.90;;;;;;5030549;28;20041;-78
2023/07/04 06:06:26;;;;;;;4.55;1.88;;;18.60;75.30;;;;;;5030552;28;20053;-77
2023/07/04 06:08:53;;;;;;;3.30;2.22;;;18.70;75.00;;;;;;5030782;28;20497;-78
2023/07/04 06:11:20;;;;;;;3.72;2.10;;;18.70;74.70;;;;;;5032367;28;20034;-77
2023/07/04 06:13:47;;;;;;;3.55;1.98;;;18.80;74.30;;;;;;5031843;28;20034;-79
2023/07/04 06:16:13;;;;;;;3.88;2.08;;;18.80;74.20;;;;;;5030154;28;20035;-76
2023/07/04 06:18:39;;;;;;;4.55;2.03;;;18.90;74.00;;;;;;5030094;28;20025;-77
2023/07/04 06:21:08;;;;;;;6.38;2.40;;;18.90;73.00;;;;;;5030019;28;20098;-77
2023/07/04 06:23:34;;;;;;;3.50;2.03;;;19.00;72.70;;;;;;5030196;28;20125;-76
2023/07/04 06:26:00;;;;;;;4.18;2.30;;;19.10;72.00;;;;;;5030441;28;20116;-76
2023/07/04 06:28:25;;;;;;;9.13;2.45;;;19.10;71.20;;;;;;5030322;28;20030;-76
2023/07/04 06:30:51;;;;;;;4.53;2.72;;;19.20;67.80;;;;;;5030588;28;20040;-76
2023/07/04 06:33:17;;;;;;;4.88;2.60;;;19.20;66.90;;;;;;5029945;28;20101;-76
2023/07/04 06:35:43;;;;;;;8.10;2.28;;;19.20;68.20;;;;;;5029794;28;20048;-76
2023/07/04 06:38:09;;;;;;;6.85;2.65;;;19.20;64.50;;;;;;5031118;28;20029;-76
2023/07/04 06:40:35;;;;;;;4.85;2.35;;;19.20;64.50;;;;;;5029814;28;20025;-77
2023/07/04 06:43:00;;;;;;;5.13;2.20;;;19.30;65.00;;;;;;5029861;28;20137;-75
2023/07/04 06:45:26;;;;;;;4.38;2.13;;;19.20;63.80;;;;;;5031290;28;20025;-77
2023/07/04 06:47:52;;;;;;;6.05;2.72;;;19.20;61.30;;;;;;5029781;28;20026;-77
2023/07/04 06:50:17;;;;;;;4.60;2.33;;;19.20;63.80;;;;;;5029726;28;20026;-76
2023/07/04 06:52:43;;;;;;;7.63;2.60;;;19.20;63.50;;;;;;5029557;28;20130;-77
2023/07/04 06:55:09;;;;;;;6.47;2.70;;;19.30;62.20;;;;;;5029775;28;20078;-76
2023/07/04 06:57:35;;;;;;;4.35;2.53;;;19.20;62.50;;;;;;5029580;28;20026;-76
2023/07/04 07:00:00;;;;;;;5.43;2.10;;;19.20;63.80;;;;;;5029951;28;20026;-76
2023/07/04 07:02:26;;;;;;;4.90;2.20;;;19.20;62.60;;;;;;5030548;28;20542;-76
2023/07/04 07:04:51;;;;;;;5.28;2.83;;;19.30;62.90;;;;;;5034449;28;20036;-79
2023/07/04 07:07:17;;;;;;;3.45;2.40;;;19.40;63.40;;;;;;5029518;28;20032;-79
2023/07/04 07:09:44;;;;;;;4.15;2.35;;;19.50;63.30;;;;;;5029060;28;20474;-76
2023/07/04 07:12:11;;;;;;;6.15;2.70;;;19.60;63.00;;;;;;5029372;28;20504;-76
2023/07/04 07:14:38;;;;;;;6.75;2.50;;;19.70;59.70;;;;;;5029105;28;20384;-76
2023/07/04 07:17:07;;;;;;;5.75;2.72;;;19.70;59.40;;;;;;5029361;28;20021;-79
2023/07/04 07:19:33;;;;;;;9.65;2.70;;;19.70;59.20;;;;;;5012833;28;20477;-78
2023/07/04 07:22:00;;;;;;;8.02;3.47;;;19.70;59.60;;;;;;5028790;28;20417;-77
2023/07/04 07:24:27;;;;;;;8.00;3.13;;;19.80;58.90;;;;;;5029216;28;20026;-79
2023/07/04 07:26:53;;;;;;;5.82;2.65;;;19.90;60.50;;;;;;5029284;28;20108;-77
2023/07/04 07:29:18;;;;;;;5.65;2.95;;;19.90;58.60;;;;;;5030392;28;20148;-77
2023/07/04 07:31:44;;;;;;;4.78;3.00;;;20.00;59.10;;;;;;5030309;28;20101;-78
2023/07/04 07:34:10;;;;;;;7.75;3.55;;;20.00;58.10;;;;;;5030076;28;20025;-79
2023/07/04 07:36:39;;;;;;;8.43;3.33;;;20.00;58.50;;;;;;5030238;28;20134;-75
2023/07/04 07:39:06;;;;;;;6.28;3.38;;;20.10;57.20;;;;;;5029905;28;20051;-78
2023/07/04 07:41:36;;;;;;;8.05;3.15;;;20.20;56.10;;;;;;5030054;28;20049;-73
2023/07/04 07:44:03;;;;;;;9.45;3.60;;;20.30;55.00;;;;;;5029806;28;20040;-75
2023/07/04 07:46:29;;;;;;;7.53;2.75;;;20.30;54.50;;;;;;5029374;28;20151;-78
2023/07/04 07:48:55;;;;;;;7.93;2.90;;;20.40;53.80;;;;;;5029794;28;20104;-79
2023/07/04 07:51:20;;;;;;;6.32;3.05;;;20.30;53.80;;;;;;5030190;28;20090;-80
2023/07/04 07:53:49;;;;;;;6.53;3.10;;;20.20;53.90;;;;;;5030009;28;20030;-80
2023/07/04 07:56:16;;;;;;;7.50;3.15;;;20.20;53.30;;;;;;5029989;28;20087;-76
2023/07/04 07:58:42;;;;;;;7.20;2.88;;;20.30;52.50;;;;;;5028589;28;20078;-72
2023/07/04 08:01:17;;;;;;;9.30;2.70;;;20.40;54.30;;;;;;5029754;28;20057;-78
2023/07/04 08:03:43;;;;;;;7.53;2.55;;;20.30;53.70;;;;;;5029600;28;20037;-74
2023/07/04 08:06:30;;;;;;;7.32;3.00;;;20.30;55.00;;;;;;5029718;28;20112;-74
2023/07/04 08:08:58;;;;;;;4.88;2.67;;;20.30;55.30;;;;;;5029477;28;20528;-74
2023/07/04 08:11:25;;;;;;;5.65;3.08;;;20.40;54.30;;;;;;5029605;28;20125;-77
2023/07/04 08:13:53;;;;;;;4.10;2.70;;;20.60;52.80;;;;;;5029664;28;20030;-74
2023/07/04 08:16:28;;;;;;;7.30;2.95;;;20.60;52.80;;;;;;5032360;28;20037;-74
2023/07/04 08:18:54;;;;;;;;;;;20.70;52.40;;;;;;5032040;28;20064;-75
2023/07/04 08:21:19;;;;;;;4.15;2.63;;;20.90;50.70;;;;;;5032864;28;19948;-74
2023/07/04 08:23:45;;;;;;;6.28;2.60;;;21.00;51.10;;;;;;5032673;28;20536;-74
2023/07/04 08:26:19;;;;;;;4.60;2.63;;;20.90;51.30;;;;;;5033060;28;20363;-74
2023/07/04 08:28:44;;;;;;;7.20;3.13;;;20.90;53.10;;;;;;5037689;28;20075;-74
2023/07/04 08:31:10;;;;;;;13.32;5.63;;;20.90;52.90;;;;;;5032978;28;20022;-74
2023/07/04 08:33:36;;;;;;;9.50;3.90;;;21.20;53.20;;;;;;5032617;28;20489;-74
2023/07/04 08:36:07;;;;;;;5.97;3.08;;;21.30;53.50;;;;;;5032794;28;20029;-74
2023/07/04 08:38:34;;;;;;;8.70;4.13;;;21.40;51.00;;;;;;5032692;28;20529;-74
2023/07/04 08:41:00;;;;;;;9.38;3.95;;;21.30;50.20;;;;;;5032252;28;20053;-75
2023/07/04 08:43:41;;;;;;;7.95;3.33;;;21.40;50.10;;;;;;5032233;28;20055;-74
2023/07/04 08:46:10;;;;;;;8.43;3.70;;;21.60;50.40;;;;;;5031440;28;20021;-75
2023/07/04 08:48:37;;;;;;;8.13;3.65;;;21.80;49.30;;;;;;5031956;28;20464;-77
2023/07/04 08:51:03;;;;;;;11.13;3.88;;;22.00;48.50;;;;;;5032210;28;20039;-75
2023/07/04 08:53:30;;;;;;;16.83;3.80;;;22.00;49.30;;;;;;5031840;28;20032;-74
2023/07/04 08:56:07;;;;;;;7.05;2.97;;;21.90;47.40;;;;;;5031978;28;20021;-75
2023/07/04 08:58:45;;;;;;;8.85;3.38;;;21.80;47.90;;;;;;5032164;28;20044;-74
2023/07/04 09:01:32;;;;;;;8.07;3.35;;;21.90;48.50;;;;;;5031618;28;20045;-75
2023/07/04 09:04:07;;;;;;;7.68;3.35;;;21.60;48.90;;;;;;5031602;28;20059;-75
2023/07/04 09:06:43;;;;;;;9.30;3.45;;;21.50;48.40;;;;;;5061287;28;20017;-75
2023/07/04 09:09:34;;;;;;;10.00;3.70;;;21.50;48.60;;;;;;5031404;28;20303;-76
2023/07/04 09:12:00;;;;;;;5.20;2.97;;;21.50;48.80;;;;;;5029736;28;20022;-75
2023/07/04 09:14:33;;;;;;;5.90;3.20;;;21.60;48.90;;;;;;5031349;28;20028;-75
2023/07/04 09:17:04;;;;;;;7.53;3.08;;;21.60;48.00;;;;;;5031108;28;20022;-76
2023/07/04 09:19:35;;;;;;;6.75;3.13;;;21.50;48.90;;;;;;5032787;28;20456;-76
2023/07/04 09:22:05;;;;;;;8.50;3.50;;;21.50;48.80;;;;;;5031553;28;20033;-75
2023/07/04 09:24:31;;;;;;;14.15;3.20;;;21.40;48.10;;;;;;5031480;28;20032;-76
2023/07/04 09:26:58;;;;;;;4.95;2.95;;;21.40;48.40;;;;;;5030519;28;20025;-75
2023/07/04 09:29:25;;;;;;;6.80;2.85;;;21.60;48.40;;;;;;5030426;28;20075;-73
2023/07/04 09:32:00;;;;;;;9.98;3.40;;;21.90;47.60;;;;;;5031471;28;20049;-74
2023/07/04 09:34:28;;;;;;;;;;;22.10;46.60;;;;;;5031871;28;20370;-74
2023/07/04 09:36:54;;;;;;;12.07;3.50;;;22.10;46.60;;;;;;5029045;28;19905;-75
2023/07/04 09:39:20;;;;;;;12.07;2.85;;;22.10;46.20;;;;;;5029979;28;20018;-74
2023/07/04 09:41:57;;;;;;;7.05;3.25;;;21.80;46.50;;;;;;5031300;28;20102;-75
2023/07/04 09:44:29;;;;;;;6.18;3.42;;;21.70;46.40;;;;;;5029601;28;20030;-75
2023/07/04 09:46:58;;;;;;;8.07;2.65;;;21.60;46.90;;;;;;5028935;28;20074;-78
2023/07/04 09:49:29;;;;;;;7.78;2.88;;;21.50;47.60;;;;;;5032601;28;20025;-75
2023/07/04 09:52:01;;;;;;;5.60;2.70;;;21.70;47.80;;;;;;5030223;28;20029;-75
2023/07/04 09:54:28;;;;;;;4.72;2.60;;;21.90;47.00;;;;;;5031115;28;20084;-77
2023/07/04 09:56:54;;;;;;;6.95;3.70;;;22.20;46.40;;;;;;5030268;28;20117;-74
2023/07/04 09:59:28;;;;;;;6.65;3.17;;;22.50;46.70;;;;;;5031075;28;20096;-73
2023/07/04 10:02:10;;;;;;;6.20;3.40;;;22.50;47.60;;;;;;5028587;28;20030;-74
2023/07/04 10:04:37;;;;;;;3.72;2.80;;;22.60;46.20;;;;;;5028860;28;20038;-75
2023/07/04 10:07:12;;;;;;;5.80;2.58;;;22.80;43.70;;;;;;5030957;28;20096;-75
2023/07/04 10:09:58;;;;;;;;;;;22.70;43.70;;;;;;5029372;28;20055;-75
2023/07/04 10:12:26;;;;;;;4.47;2.33;;;22.60;44.60;;;;;;5029570;28;19956;-74
2023/07/04 10:14:57;;;;;;;3.38;2.42;;;22.40;44.40;;;;;;5030725;28;20258;-75
2023/07/04 10:17:32;;;;;;;7.43;2.90;;;22.50;45.80;;;;;;5033484;28;20021;-74
2023/07/04 10:20:04;;;;;;;3.28;2.25;;;22.60;43.60;;;;;;5028355;28;20478;-76
2023/07/04 10:22:38;;;;;;;8.68;2.78;;;22.60;42.90;;;;;;5030280;28;20112;-76
2023/07/04 10:25:11;;;;;;;3.55;2.20;;;22.70;43.20;;;;;;5030595;28;20025;-76
2023/07/04 10:27:39;;;;;;;4.38;2.40;;;22.60;42.50;;;;;;5028504;28;20024;-76
2023/07/04 10:30:20;;;;;;;3.65;2.42;;;22.70;42.90;;;;;;5030564;28;20070;-76
2023/07/04 10:32:50;;;;;;;3.55;2.30;;;23.00;43.50;;;;;;5029815;28;20021;-76
2023/07/04 10:35:19;;;;;;;2.63;2.13;;;23.30;42.50;;;;;;5028282;28;20138;-75
2023/07/04 10:37:57;;;;;;;4.05;2.13;;;23.50;42.90;;;;;;5030355;28;20029;-76
2023/07/04 10:40:25;;;;;;;2.92;2.25;;;23.70;41.40;;;;;;5030411;28;20014;-76
2023/07/04 10:43:09;;;;;;;6.15;1.83;;;23.70;39.90;;;;;;5029989;28;20517;-75
2023/07/04 10:45:36;;;;;;;4.40;2.03;;;24.10;39.80;;;;;;5027385;28;20022;-76
2023/07/04 10:48:09;;;;;;;3.85;1.75;;;23.90;38.60;;;;;;5029293;28;20017;-75
2023/07/04 10:50:58;;;;;;;2.63;2.03;;;23.70;38.70;;;;;;5027283;28;20013;-76
2023/07/04 10:53:24;;;;;;;3.13;2.03;;;23.90;39.70;;;;;;5028316;28;20449;-75
2023/07/04 10:55:51;;;;;;;2.88;2.00;;;23.90;39.50;;;;;;5029397;28;20026;-76
2023/07/04 10:58:20;;;;;;;2.72;2.03;;;23.80;40.20;;;;;;5029215;28;20028;-73
2023/07/04 11:00:58;;;;;;;3.47;1.80;;;23.90;40.10;;;;;;5028981;28;20508;-75
2023/07/04 11:03:53;;;;;;;3.83;2.05;;;23.90;40.10;;;;;;5027494;28;20037;-73
2023/07/04 11:06:30;;;;;;;4.20;2.05;;;23.70;40.70;;;;;;5027753;28;20025;-75
2023/07/04 11:08:57;;;;;;;3.70;2.10;;;23.70;41.30;;;;;;5028267;28;20032;-77
2023/07/04 11:11:29;;;;;;;2.83;1.88;;;23.70;41.00;;;;;;5029260;28;20346;-76
2023/07/04 11:13:58;;;;;;;3.42;1.77;;;23.80;40.70;;;;;;5026807;28;20017;-77
2023/07/04 11:16:31;;;;;;;2.75;1.88;;;23.90;40.60;;;;;;5029597;28;20060;-77
2023/07/04 11:19:19;;;;;;;3.17;2.00;;;23.90;40.60;;;;;;5029682;28;20022;-76
2023/07/04 11:22:03;;;;;;;2.75;1.92;;;23.90;41.30;;;;;;5029631;28;20022;-77
2023/07/04 11:24:43;;;;;;;4.40;1.98;;;23.60;41.70;;;;;;5029102;28;20045;-77
2023/07/04 11:27:29;;;;;;;3.00;1.90;;;23.30;43.30;;;;;;5028188;28;20021;-76
2023/07/04 11:29:54;;;;;;;;;;;23.40;42.10;;;;;;5029079;28;20128;-77
2023/07/04 11:32:25;;;;;;;3.42;2.05;;;23.60;42.00;;;;;;5029813;28;19932;-77
2023/07/04 11:35:00;;;;;;;4.68;2.30;;;24.00;41.40;;;;;;5029628;28;20029;-77
2023/07/04 11:37:28;;;;;;;3.72;2.05;;;24.40;41.70;;;;;;5029777;28;20036;-76
2023/07/04 11:40:01;;;;;;;3.58;1.80;;;25.10;39.80;;;;;;5029881;28;20021;-76
2023/07/04 11:42:40;;;;;;;4.00;1.52;;;25.60;38.90;;;;;;5029570;28;20046;-77
2023/07/04 11:45:13;;;;;;;13.57;3.40;;;26.00;37.80;;;;;;5029402;28;20053;-77
2023/07/04 11:47:48;;;;;;;2.28;2.08;;;26.30;37.60;;;;;;5029630;28;20067;-77
2023/07/04 11:50:17;;;;;;;1.88;1.50;;;26.30;36.20;;;;;;5029110;28;20022;-76
2023/07/04 11:52:51;;;;;;;2.67;1.27;;;25.90;35.30;;;;;;5029078;28;20041;-76
2023/07/04 11:55:22;;;;;;;1.88;1.40;;;25.60;36.30;;;;;;5029491;28;20463;-76
2023/07/04 11:57:59;;;;;;;1.73;1.30;;;25.40;38.00;;;;;;5028473;28;20033;-77
2023/07/04 12:00:30;;;;;;;5.60;1.52;;;25.10;38.40;;;;;;5029538;28;20112;-76
2023/07/04 12:02:56;;;;;;;3.97;1.80;;;24.80;38.20;;;;;;5028477;28;20493;-78
2023/07/04 12:05:33;;;;;;;1.70;1.60;;;24.60;39.70;;;;;;5029611;28;20030;-76
2023/07/04 12:08:06;;;;;;;2.88;1.52;;;24.40;41.10;;;;;;5029657;28;20033;-76
2023/07/04 12:10:32;;;;;;;3.97;1.58;;;24.60;40.70;;;;;;5029398;28;20067;-76
2023/07/04 12:13:01;;;;;;;1.60;1.30;;;24.00;41.80;;;;;;5028992;28;20372;-77
2023/07/04 12:15:32;;;;;;;3.42;1.50;;;23.90;42.30;;;;;;5028984;28;20155;-76
2023/07/04 12:17:59;;;;;;;1.67;1.27;;;23.80;42.40;;;;;;5029109;28;20036;-76
2023/07/04 12:20:30;;;;;;;2.95;1.50;;;23.60;42.90;;;;;;5028989;28;20026;-77
2023/07/04 12:23:00;;;;;;;2.80;1.50;;;23.30;42.30;;;;;;5029397;28;20108;-77
2023/07/04 12:25:36;;;;;;;2.83;1.92;;;23.30;43.10;;;;;;5029675;28;20021;-77
2023/07/04 12:28:03;;;;;;;2.20;1.30;;;23.50;43.80;;;;;;5027637;28;20048;-77
2023/07/04 12:30:29;;;;;;;3.28;1.90;;;23.80;42.90;;;;;;5032628;28;20026;-77
2023/07/04 12:32:55;;;;;;;3.38;1.65;;;23.90;42.50;;;;;;5031310;28;20021;-77
2023/07/04 12:35:25;;;;;;;3.70;2.00;;;24.00;42.80;;;;;;5029442;28;20026;-77
2023/07/04 12:37:54;;;;;;;5.28;1.77;;;24.10;43.00;;;;;;5030110;28;20049;-77
2023/07/04 12:40:24;;;;;;;3.58;2.10;;;24.10;43.60;;;;;;5029404;28;20025;-77
2023/07/04 12:42:51;;;;;;;2.33;1.67;;;24.10;43.60;;;;;;5027333;28;20076;-76
2023/07/04 12:45:22;;;;;;;3.47;1.85;;;24.20;43.70;;;;;;5029037;28;20030;-77
2023/07/04 12:47:51;;;;;;;2.53;1.58;;;24.30;43.30;;;;;;5028691;28;20086;-77
2023/07/04 12:50:17;;;;;;;2.15;1.35;;;24.60;42.80;;;;;;5027489;28;20414;-77
2023/07/04 12:52:45;;;;;;;1.77;1.20;;;24.70;41.50;;;;;;5028661;27;20354;-76
2023/07/04 12:55:33;;;;;;;1.48;1.10;;;24.90;40.10;;;;;;5028410;28;20052;-75